createdAt,value
2023-02-11T00:00:04.319Z,7.64
2023-02-11T00:12:50.042Z,7.08
2023-02-11T00:18:19.289Z,7.16
2023-02-11T00:23:22.873Z,7.66
2023-02-11T00:29:42.156Z,6.72
2023-02-11T00:42:59.342Z,6.80
2023-02-11T00:55:48.629Z,7.68
2023-02-11T01:08:29.630Z,7.36
2023-02-11T01:14:50.563Z,6.43
2023-02-11T01:26:43.835Z,6.92
2023-02-11T01:32:38.023Z,7.55
2023-02-11T02:08:25.876Z,7.04
2023-02-11T02:22:02.212Z,6.76
2023-02-11T02:44:38.459Z,6.31
2023-02-11T02:57:48.868Z,6.41
2023-02-11T03:03:36.260Z,7.50
2023-02-11T03:10:02.985Z,6.32
2023-02-11T03:16:07.381Z,7.63
2023-02-11T03:35:32.794Z,6.66
2023-02-11T03:40:41.606Z,7.31
2023-02-11T03:47:08.419Z,6.29
2023-02-11T03:52:39.017Z,7.42
2023-02-11T04:04:33.003Z,7.27
2023-02-11T04:09:37.202Z,6.41
2023-02-11T04:15:02.448Z,6.47
2023-02-11T04:21:42.643Z,6.96
2023-02-11T04:27:16.777Z,6.21
2023-02-11T04:39:52.597Z,6.28
2023-02-11T04:44:56.310Z,6.96
2023-02-11T04:50:56.457Z,6.95
2023-02-11T04:56:00.182Z,6.38
2023-02-11T05:02:00.860Z,7.28
2023-02-11T05:07:04.469Z,6.58
2023-02-11T05:13:04.627Z,6.50
2023-02-11T05:28:17.587Z,6.52
2023-02-11T05:34:12.546Z,6.71
2023-02-11T05:39:16.361Z,6.71
2023-02-11T05:45:37.191Z,6.74
2023-02-11T06:05:06.929Z,6.81
2023-02-11T06:10:48.487Z,6.96
2023-02-11T06:16:03.473Z,6.71
2023-02-11T06:21:09.721Z,6.36
2023-02-11T06:27:50.417Z,6.48
2023-02-11T06:32:54.971Z,6.81
2023-02-11T06:37:58.705Z,6.91
2023-02-11T06:43:02.394Z,6.90
2023-02-11T06:48:06.270Z,6.89
2023-02-11T06:53:09.832Z,6.39
2023-02-11T06:58:13.581Z,6.70
2023-02-11T07:03:17.309Z,7.02
2023-02-11T07:08:20.911Z,6.62
2023-02-11T07:13:24.686Z,6.51
2023-02-11T07:18:28.278Z,6.77
2023-02-11T07:23:32.277Z,7.24
2023-02-11T07:28:38.583Z,7.65
2023-02-11T07:33:43.918Z,7.57
2023-02-11T07:38:48.791Z,7.94
2023-02-11T07:43:53.280Z,7.95
2023-02-11T07:55:46.861Z,7.57
2023-02-11T08:00:50.707Z,7.31
2023-02-11T08:05:54.398Z,7.49
2023-02-11T08:10:58.929Z,7.67
2023-02-11T08:16:05.551Z,7.82
2023-02-11T08:21:10.383Z,7.52
2023-02-11T08:26:21.588Z,7.48
2023-02-11T08:31:30.139Z,7.32
2023-02-11T08:36:39.466Z,7.35
2023-02-11T08:42:33.249Z,7.61
2023-02-11T09:02:19.832Z,7.64
2023-02-11T09:07:42.568Z,7.69
2023-02-11T09:12:46.297Z,7.57
2023-02-11T09:18:08.753Z,7.22
2023-02-11T09:23:12.884Z,7.36
2023-02-11T09:28:16.469Z,7.47
2023-02-11T09:33:20.525Z,7.26
2023-02-11T09:38:24.058Z,7.41
2023-02-11T09:43:45.282Z,7.33
2023-02-11T09:48:54.030Z,7.66
2023-02-11T09:54:08.155Z,7.70
2023-02-11T09:59:17.968Z,7.77
2023-02-11T10:05:26.012Z,7.95
2023-02-11T10:24:54.516Z,8.59
2023-02-11T10:31:00.516Z,8.67
2023-02-11T10:36:05.638Z,9.11
2023-02-11T10:41:23.060Z,9.21
2023-02-11T10:47:09.808Z,9.23
2023-02-11T10:52:30.846Z,8.98
2023-02-11T10:57:50.757Z,8.85
2023-02-11T11:03:23.166Z,8.48
2023-02-11T11:08:51.244Z,8.51
2023-02-11T11:28:50.841Z,9.81
2023-02-11T11:33:58.886Z,9.86
2023-02-11T11:39:28.214Z,9.78
2023-02-11T11:44:34.299Z,10.19
2023-02-11T11:50:14.384Z,9.79
2023-02-11T11:55:23.251Z,10.01
2023-02-11T12:00:38.472Z,10.28
2023-02-11T12:06:13.380Z,10.39
2023-02-11T12:11:29.409Z,10.54
2023-02-11T12:16:59.614Z,10.71
2023-02-11T12:22:24.025Z,9.49
2023-02-11T12:27:48.524Z,9.46
2023-02-11T12:33:01.293Z,10.12
2023-02-11T12:38:29.829Z,10.61
2023-02-11T12:43:40.378Z,11.11
2023-02-11T12:49:26.717Z,9.67
2023-02-11T12:54:43.910Z,9.55
2023-02-11T13:00:41.150Z,9.87
2023-02-11T13:14:43.857Z,10.30
2023-02-11T13:20:07.849Z,10.67
2023-02-11T13:25:50.217Z,10.99
2023-02-11T13:31:03.312Z,10.94
2023-02-11T13:36:07.302Z,11.22
2023-02-11T13:41:33.345Z,11.61
2023-02-11T13:47:33.968Z,10.65
2023-02-11T13:52:40.234Z,10.77
2023-02-11T13:57:44.273Z,11.46
2023-02-11T14:10:43.568Z,11.82
2023-02-11T14:15:47.734Z,12.08
2023-02-11T14:20:52.229Z,12.19
2023-02-11T14:26:21.509Z,11.88
2023-02-11T14:31:37.832Z,10.62
2023-02-11T14:37:05.347Z,11.64
2023-02-11T14:49:35.067Z,12.15
2023-02-11T14:54:39.192Z,12.28
2023-02-11T15:00:34.221Z,12.32
2023-02-11T15:06:23.686Z,12.42
2023-02-11T15:11:53.828Z,11.33
2023-02-11T15:17:02.909Z,10.87
2023-02-11T15:22:37.259Z,11.46
2023-02-11T15:27:49.239Z,11.52
2023-02-11T15:41:22.438Z,11.96
2023-02-11T15:46:38.786Z,12.07
2023-02-11T15:52:14.502Z,11.98
2023-02-11T16:05:47.733Z,11.58
2023-02-11T16:11:09.329Z,11.50
2023-02-11T16:17:08.112Z,11.97
2023-02-11T16:37:37.157Z,12.68
2023-02-11T16:42:41.202Z,11.02
2023-02-11T16:47:45.111Z,12.36
2023-02-11T16:53:39.113Z,12.04
2023-02-11T16:59:01.432Z,11.61
2023-02-11T17:04:33.931Z,12.62
2023-02-11T17:09:39.661Z,11.08
2023-02-11T17:15:36.083Z,12.32
2023-02-11T17:20:39.609Z,11.06
2023-02-11T17:26:37.218Z,11.80
2023-02-11T17:31:41.884Z,12.20
2023-02-11T17:37:23.759Z,10.57
2023-02-11T17:42:28.222Z,11.79
2023-02-11T17:47:31.950Z,10.06
2023-02-11T17:52:37.149Z,10.07
2023-02-11T17:57:41.537Z,11.52
2023-02-11T18:02:45.457Z,10.05
2023-02-11T18:07:49.592Z,9.83
2023-02-11T18:12:53.373Z,10.77
2023-02-11T18:17:57.170Z,9.08
2023-02-11T18:23:01.753Z,9.71
2023-02-11T18:35:15.964Z,8.66
2023-02-11T18:41:38.163Z,10.05
2023-02-11T18:55:53.259Z,8.01
2023-02-11T19:02:12.979Z,9.28
2023-02-11T19:23:09.730Z,7.29
2023-02-11T19:28:14.199Z,9.02
2023-02-11T19:33:18.014Z,8.94
2023-02-11T19:38:22.249Z,6.74
2023-02-11T19:43:26.246Z,6.17
2023-02-11T19:48:31.099Z,8.48
2023-02-11T19:54:01.826Z,8.85
2023-02-11T19:59:31.440Z,6.68
2023-02-11T20:04:36.189Z,5.34
2023-02-11T20:09:41.367Z,5.36
2023-02-11T20:14:45.052Z,8.35
2023-02-11T20:19:48.879Z,8.73
2023-02-11T20:24:52.627Z,6.61
2023-02-11T20:29:56.386Z,5.27
2023-02-11T20:34:59.976Z,4.52
2023-02-11T20:40:04.313Z,6.46
2023-02-11T20:45:12.860Z,8.61
2023-02-11T21:21:44.552Z,5.09
2023-02-11T21:27:40.324Z,5.23
2023-02-11T21:32:44.224Z,9.04
2023-02-11T21:37:49.022Z,7.98
2023-02-11T21:51:31.884Z,4.83
2023-02-11T21:56:36.927Z,4.11
2023-02-11T22:06:12.456Z,5.78
2023-02-11T22:11:16.566Z,9.02
2023-02-11T22:30:36.285Z,6.96
2023-02-11T22:40:16.787Z,7.79
2023-02-11T23:05:44.797Z,5.83
2023-02-11T23:18:15.823Z,6.81
2023-02-11T23:23:38.541Z,5.68
2023-02-11T23:28:46.352Z,7.61
2023-02-11T23:33:50.750Z,6.98
2023-02-11T23:38:54.472Z,5.24
2023-02-11T23:44:35.824Z,6.00
2023-02-11T23:50:29.571Z,7.51
2023-02-11T23:55:40.230Z,5.53
